Time;durP1;ratioP1;P1;durP2;ratioP2;P2;SDS_P1;SDS_P2;PMS_P1;PMS_P2;Temp;Humidity;BMP_temperature;BMP_pressure;BME280_temperature;BME280_humidity;BME280_pressure;Samples;Min_cycle;Max_cycle;Signal;HPM_P1;HPM_P2
2022/05/31 00:01:30;;;;;;;2.90;1.92;;;14.40;85.90;;;;;;4993447;28;20030;-67
2022/05/31 00:03:55;;;;;;;3.33;2.00;;;14.40;85.90;;;;;;4995203;28;20033;-67
2022/05/31 00:06:21;;;;;;;5.05;2.10;;;14.40;85.90;;;;;;4995105;28;20025;-66
2022/05/31 00:08:47;;;;;;;3.63;2.42;;;14.40;86.60;;;;;;4994236;28;20034;-67
2022/05/31 00:11:13;;;;;;;8.90;2.10;;;14.40;86.10;;;;;;4994469;28;20046;-66
2022/05/31 00:13:39;;;;;;;3.17;2.08;;;14.30;86.10;;;;;;4994974;28;20261;-67
2022/05/31 00:16:05;;;;;;;3.47;1.95;;;14.30;86.20;;;;;;4993812;28;20121;-67
2022/05/31 00:18:31;;;;;;;2.95;2.05;;;14.30;86.30;;;;;;4994825;28;20041;-67
2022/05/31 00:20:57;;;;;;;5.45;2.20;;;14.20;86.00;;;;;;4992730;28;20038;-67
2022/05/31 00:23:23;;;;;;;5.53;2.70;;;14.30;86.00;;;;;;4994626;28;20049;-67
2022/05/31 00:25:49;;;;;;;2.83;1.95;;;14.20;86.00;;;;;;4994612;28;20544;-67
2022/05/31 00:28:15;;;;;;;4.03;2.17;;;14.20;86.10;;;;;;4993964;28;20150;-67
2022/05/31 00:30:41;;;;;;;3.72;2.60;;;14.20;86.10;;;;;;4994437;28;20030;-67
2022/05/31 00:33:09;;;;;;;5.88;3.83;;;14.20;86.10;;;;;;4992617;28;20486;-67
2022/05/31 00:35:39;;;;;;;4.93;2.67;;;14.20;86.20;;;;;;4994944;28;20034;-67
2022/05/31 00:38:07;;;;;;;7.28;2.67;;;14.20;86.20;;;;;;4993541;28;20030;-67
2022/05/31 00:40:33;;;;;;;3.78;2.85;;;14.20;86.20;;;;;;4993522;28;20482;-67
2022/05/31 00:43:22;;;;;;;4.18;2.65;;;14.20;86.40;;;;;;4994130;28;20042;-67
2022/05/31 00:46:03;;;;;;;5.63;2.95;;;14.20;86.60;;;;;;4993950;28;20062;-67
2022/05/31 00:48:34;;;;;;;6.18;3.25;;;14.20;86.80;;;;;;4993771;28;20054;-67
2022/05/31 00:51:06;;;;;;;4.20;2.60;;;14.20;86.90;;;;;;4993983;28;20032;-66
2022/05/31 00:53:37;;;;;;;4.75;2.80;;;14.20;87.10;;;;;;4993476;28;20085;-67
2022/05/31 00:56:12;;;;;;;3.97;2.70;;;14.10;87.30;;;;;;4992653;28;20498;-66
2022/05/31 00:58:45;;;;;;;4.78;2.80;;;14.10;87.40;;;;;;4993587;28;20032;-66
2022/05/31 01:01:14;;;;;;;4.47;2.85;;;14.10;87.60;;;;;;4992663;28;20066;-66
2022/05/31 01:03:41;;;;;;;3.65;2.55;;;14.10;87.70;;;;;;4981476;28;20479;-66
2022/05/31 01:06:10;;;;;;;4.35;2.80;;;14.10;87.90;;;;;;4992973;28;20037;-67
2022/05/31 01:08:37;;;;;;;4.50;2.97;;;14.10;88.10;;;;;;4993865;28;20027;-66
2022/05/31 01:11:41;;;;;;;5.20;3.00;;;14.00;88.20;;;;;;4931207;29;20419;-67
2022/05/31 01:14:26;;;;;;;4.63;2.78;;;14.10;88.40;;;;;;4986666;28;20042;-67
2022/05/31 01:17:18;;;;;;;5.85;2.88;;;14.00;88.40;;;;;;4993741;28;20390;-66
2022/05/31 01:20:02;;;;;;;6.32;3.15;;;14.00;88.50;;;;;;4977244;28;20133;-67
2022/05/31 01:23:03;;;;;;;4.68;3.00;;;14.00;88.70;;;;;;4988761;28;20030;-66
2022/05/31 01:25:58;;;;;;;5.68;2.72;;;14.00;88.70;;;;;;4979542;28;20034;-66
2022/05/31 01:28:48;;;;;;;5.13;2.60;;;14.10;88.80;;;;;;4979567;28;20045;-67
2022/05/31 01:31:46;;;;;;;4.38;2.60;;;14.00;88.80;;;;;;4990978;28;20045;-66
2022/05/31 01:34:18;;;;;;;4.10;2.95;;;14.10;89.00;;;;;;4981845;28;20042;-67
2022/05/31 01:36:51;;;;;;;7.32;3.15;;;14.00;89.00;;;;;;4993257;28;20022;-66
2022/05/31 01:39:42;;;;;;;7.10;2.72;;;14.00;89.10;;;;;;4991338;28;20030;-67
2022/05/31 01:42:20;;;;;;;4.95;2.72;;;14.00;89.20;;;;;;4992107;28;20038;-67
2022/05/31 01:44:52;;;;;;;4.63;2.63;;;13.90;89.10;;;;;;4990347;28;20030;-67
2022/05/31 01:47:19;;;;;;;2.58;2.20;;;14.00;89.30;;;;;;4992843;28;20510;-66
2022/05/31 01:49:49;;;;;;;3.42;2.42;;;14.00;89.30;;;;;;4991520;28;20030;-66
2022/05/31 01:52:14;;;;;;;3.88;2.90;;;14.00;89.40;;;;;;4992227;28;20053;-66
2022/05/31 01:54:42;;;;;;;4.97;3.35;;;14.00;89.50;;;;;;4987030;28;20034;-66
2022/05/31 01:57:12;;;;;;;7.45;3.08;;;14.00;89.60;;;;;;4992059;28;20541;-67
2022/05/31 01:59:45;;;;;;;3.90;3.15;;;14.00;89.70;;;;;;4984772;28;20050;-67
2022/05/31 02:02:15;;;;;;;;;;;14.00;89.80;;;;;;5002834;28;20027;-67
2022/05/31 02:04:41;;;;;;;8.48;2.25;;;14.00;89.60;;;;;;4990932;28;19910;-67
2022/05/31 02:07:16;;;;;;;5.53;2.75;;;14.00;89.50;;;;;;4991854;28;20410;-67
2022/05/31 02:09:46;;;;;;;5.35;3.00;;;14.00;89.80;;;;;;4976884;28;20062;-67
2022/05/31 02:12:22;;;;;;;3.83;2.58;;;14.00;89.90;;;;;;4991213;28;20086;-67
2022/05/31 02:15:07;;;;;;;4.63;2.78;;;14.00;89.90;;;;;;4972474;28;20122;-67
2022/05/31 02:17:33;;;;;;;4.35;2.47;;;14.00;90.00;;;;;;5001604;28;20497;-66
2022/05/31 02:20:19;;;;;;;5.95;3.08;;;13.90;90.00;;;;;;4985680;28;20108;-67
2022/05/31 02:22:44;;;;;;;4.45;2.60;;;14.00;90.00;;;;;;4990945;28;20042;-67
2022/05/31 02:25:10;;;;;;;6.88;3.20;;;14.00;90.10;;;;;;4991458;28;20042;-67
2022/05/31 02:27:37;;;;;;;9.70;3.00;;;14.00;90.20;;;;;;4989996;28;20030;-66
2022/05/31 02:30:03;;;;;;;7.32;3.20;;;14.00;90.20;;;;;;4991391;28;20026;-66
2022/05/31 02:32:29;;;;;;;6.30;3.40;;;14.00;90.30;;;;;;4992386;28;20033;-67
2022/05/31 02:34:55;;;;;;;4.28;2.95;;;14.00;90.30;;;;;;4990831;28;20026;-67
2022/05/31 02:37:22;;;;;;;3.95;3.15;;;14.00;90.30;;;;;;4990343;28;20081;-66
2022/05/31 02:39:47;;;;;;;5.15;3.10;;;14.00;90.30;;;;;;4992631;28;20048;-67
2022/05/31 02:42:15;;;;;;;9.75;3.10;;;14.00;90.30;;;;;;4990036;28;20023;-67
2022/05/31 02:44:41;;;;;;;4.85;3.10;;;14.00;90.30;;;;;;4991845;28;20026;-66
2022/05/31 02:47:08;;;;;;;4.90;3.28;;;14.00;90.30;;;;;;4990391;28;20529;-66
2022/05/31 02:49:38;;;;;;;5.15;3.05;;;14.00;90.40;;;;;;4991292;28;20022;-67
2022/05/31 02:52:04;;;;;;;4.20;3.10;;;14.00;90.40;;;;;;4990055;28;20030;-67
2022/05/31 02:54:30;;;;;;;5.50;2.90;;;14.00;90.40;;;;;;4991284;28;20023;-67
2022/05/31 02:57:19;;;;;;;5.47;3.08;;;14.00;90.40;;;;;;4961493;28;20757;-67
2022/05/31 02:59:44;;;;;;;6.28;3.63;;;14.00;90.40;;;;;;4991769;28;20066;-67
2022/05/31 03:02:37;;;;;;;4.55;3.10;;;14.00;90.40;;;;;;4991283;28;20056;-67
2022/05/31 03:05:21;;;;;;;5.63;3.45;;;14.00;90.40;;;;;;4991039;28;20509;-66
2022/05/31 03:08:05;;;;;;;4.82;3.45;;;14.00;90.40;;;;;;4987017;28;20040;-67
2022/05/31 03:10:44;;;;;;;4.30;3.22;;;14.00;90.40;;;;;;4990856;28;20422;-67
2022/05/31 03:13:12;;;;;;;4.32;3.38;;;14.00;90.40;;;;;;4990197;28;20041;-67
2022/05/31 03:15:38;;;;;;;5.32;3.70;;;13.90;90.40;;;;;;4992130;28;20038;-67
2022/05/31 03:18:19;;;;;;;6.45;3.78;;;13.90;90.40;;;;;;4990969;28;20037;-66
2022/05/31 03:20:50;;;;;;;5.05;2.97;;;14.00;90.50;;;;;;4990391;28;20046;-67
2022/05/31 03:23:25;;;;;;;8.35;3.63;;;13.90;90.40;;;;;;4991580;28;20389;-67
2022/05/31 03:25:52;;;;;;;5.05;3.15;;;13.90;90.30;;;;;;4989405;28;20023;-66
2022/05/31 03:28:19;;;;;;;4.15;2.70;;;14.00;90.20;;;;;;4992146;28;20031;-67
2022/05/31 03:30:46;;;;;;;4.72;2.72;;;13.90;90.20;;;;;;4980341;28;20026;-67
2022/05/31 03:33:12;;;;;;;4.25;2.95;;;13.90;90.10;;;;;;4989722;28;20034;-67
2022/05/31 03:35:39;;;;;;;4.50;2.60;;;13.90;90.10;;;;;;4982357;28;20150;-66
2022/05/31 03:38:13;;;;;;;5.15;2.63;;;14.00;90.00;;;;;;4999906;28;20107;-67
2022/05/31 03:40:57;;;;;;;4.20;2.65;;;13.90;89.90;;;;;;4993049;28;20448;-67
2022/05/31 03:43:29;;;;;;;7.18;3.00;;;14.00;89.90;;;;;;4994141;28;20061;-66
2022/05/31 03:46:16;;;;;;;4.43;3.10;;;13.90;89.80;;;;;;4974029;28;20049;-67
2022/05/31 03:49:08;;;;;;;7.40;2.97;;;13.90;89.70;;;;;;4993106;28;20474;-66
2022/05/31 03:51:48;;;;;;;6.22;3.10;;;13.90;89.60;;;;;;4993099;28;20129;-67
2022/05/31 03:54:40;;;;;;;5.63;3.55;;;13.90;89.50;;;;;;4993025;28;20066;-66
2022/05/31 03:57:20;;;;;;;5.00;3.63;;;13.90;89.50;;;;;;4995419;28;20121;-66
2022/05/31 04:00:08;;;;;;;4.93;2.97;;;13.90;89.50;;;;;;4954233;28;20046;-67
2022/05/31 04:02:43;;;;;;;7.93;3.00;;;13.90;89.40;;;;;;4995892;28;20081;-67
2022/05/31 04:05:09;;;;;;;7.10;3.30;;;13.90;89.40;;;;;;4988715;28;20031;-67
2022/05/31 04:07:36;;;;;;;7.35;2.78;;;13.90;89.40;;;;;;4990685;28;20027;-67
2022/05/31 04:10:03;;;;;;;3.83;2.33;;;13.90;89.40;;;;;;4992139;28;20026;-67
2022/05/31 04:12:30;;;;;;;8.30;2.70;;;13.80;89.30;;;;;;4993459;28;20133;-67
2022/05/31 04:15:02;;;;;;;3.20;2.38;;;13.90;89.30;;;;;;4994898;28;20045;-67
2022/05/31 04:17:29;;;;;;;4.88;2.20;;;13.90;89.30;;;;;;4980686;28;20085;-67
2022/05/31 04:19:55;;;;;;;11.02;2.30;;;13.90;89.30;;;;;;4993683;28;20042;-67
2022/05/31 04:22:21;;;;;;;8.65;2.17;;;13.90;89.20;;;;;;4991292;28;20026;-67
2022/05/31 04:24:53;;;;;;;4.68;2.38;;;13.90;89.20;;;;;;4993727;28;20035;-67
2022/05/31 04:27:47;;;;;;;8.57;2.20;;;13.90;89.20;;;;;;4992667;28;20050;-67
2022/05/31 04:30:31;;;;;;;3.25;2.28;;;13.90;89.10;;;;;;4993493;28;20121;-67
2022/05/31 04:33:27;;;;;;;3.63;2.63;;;13.90;89.10;;;;;;4958280;28;20066;-66
2022/05/31 04:36:08;;;;;;;4.00;2.60;;;13.90;89.10;;;;;;4992583;28;20508;-67
2022/05/31 04:38:35;;;;;;;4.63;2.70;;;13.90;89.20;;;;;;4993185;28;20049;-67
2022/05/31 04:41:21;;;;;;;5.15;2.47;;;13.90;89.20;;;;;;4992545;28;20038;-67
2022/05/31 04:44:04;;;;;;;3.33;2.33;;;13.90;89.30;;;;;;4991786;28;20027;-67
2022/05/31 04:46:36;;;;;;;4.93;2.40;;;13.90;89.20;;;;;;4992274;28;20034;-67
2022/05/31 04:49:40;;;;;;;4.10;2.53;;;13.80;89.20;;;;;;4986836;28;20129;-67
2022/05/31 04:52:06;;;;;;;5.65;2.70;;;13.90;89.30;;;;;;4987460;28;20026;-67
2022/05/31 04:54:34;;;;;;;5.25;2.78;;;13.80;89.40;;;;;;4993528;28;20474;-67
2022/05/31 04:57:08;;;;;;;6.95;3.03;;;13.90;89.60;;;;;;4990259;28;20537;-67
2022/05/31 04:59:35;;;;;;;6.82;3.30;;;13.90;89.80;;;;;;4977835;28;20035;-67
2022/05/31 05:02:00;;;;;;;5.45;2.92;;;13.90;89.80;;;;;;4991605;28;20386;-67
2022/05/31 05:04:49;;;;;;;7.47;3.10;;;13.90;89.90;;;;;;4991146;28;20030;-67
2022/05/31 05:07:50;;;;;;;6.63;2.88;;;13.90;90.00;;;;;;4985296;28;21220;-67
2022/05/31 05:10:17;;;;;;;6.68;3.25;;;13.90;90.00;;;;;;4982886;28;20021;-67
2022/05/31 05:12:49;;;;;;;8.55;3.65;;;13.90;90.10;;;;;;4993359;28;20062;-69
2022/05/31 05:15:41;;;;;;;5.70;3.35;;;14.00;90.20;;;;;;4993452;28;20113;-67
2022/05/31 05:18:12;;;;;;;5.13;3.15;;;13.90;90.20;;;;;;4987827;28;20038;-70
2022/05/31 05:20:41;;;;;;;5.80;3.30;;;14.00;90.20;;;;;;4979620;28;20160;-70
2022/05/31 05:23:08;;;;;;;7.78;3.90;;;14.00;90.30;;;;;;4988824;28;20031;-71
2022/05/31 05:25:35;;;;;;;6.68;3.63;;;14.00;90.40;;;;;;4983539;28;20031;-69
2022/05/31 05:30:38;;;;;;;8.48;4.18;;;14.00;90.40;;;;;;4989911;28;20026;-68
2022/05/31 05:30:58;;;;;;;5.78;3.80;;;14.00;90.50;;;;;;5004739;28;20062;-68
2022/05/31 05:33:24;;;;;;;6.88;4.13;;;14.10;90.50;;;;;;4989012;28;20065;-69
2022/05/31 05:36:08;;;;;;;9.43;3.92;;;14.00;90.60;;;;;;4989938;28;20077;-69
2022/05/31 05:38:34;;;;;;;8.85;4.28;;;14.00;90.60;;;;;;4987482;28;20026;-68
2022/05/31 05:41:28;;;;;;;6.90;4.30;;;14.10;90.70;;;;;;4991048;28;20046;-68
2022/05/31 05:44:13;;;;;;;8.35;3.65;;;14.10;90.80;;;;;;4991416;28;20441;-69
2022/05/31 05:46:41;;;;;;;8.23;4.28;;;14.10;90.80;;;;;;5004423;28;20034;-67
2022/05/31 05:49:07;;;;;;;6.32;4.05;;;14.10;90.90;;;;;;4983046;28;20401;-69
2022/05/31 05:51:34;;;;;;;7.35;4.85;;;14.10;91.00;;;;;;4986107;28;20022;-69
2022/05/31 05:54:18;;;;;;;6.55;4.25;;;14.20;91.10;;;;;;4991680;28;20045;-68
2022/05/31 05:57:03;;;;;;;7.72;4.45;;;14.20;91.10;;;;;;4991886;28;20041;-68
2022/05/31 05:59:47;;;;;;;7.13;4.60;;;14.20;91.10;;;;;;4991780;28;20058;-68
2022/05/31 06:02:32;;;;;;;6.03;3.90;;;14.20;91.10;;;;;;4992570;28;20034;-69
2022/05/31 06:05:20;;;;;;;7.53;4.43;;;14.20;91.00;;;;;;4993368;28;20060;-68
2022/05/31 06:07:52;;;;;;;7.78;4.20;;;14.30;90.90;;;;;;4990808;28;20156;-69
2022/05/31 06:10:26;;;;;;;6.20;4.40;;;14.30;91.00;;;;;;4992927;28;20451;-69
2022/05/31 06:12:56;;;;;;;9.13;4.72;;;14.30;91.00;;;;;;4991034;28;20038;-69
2022/05/31 06:15:27;;;;;;;6.70;4.53;;;14.30;91.00;;;;;;4990017;28;20033;-69
2022/05/31 06:17:55;;;;;;;7.20;4.47;;;14.30;91.10;;;;;;4989401;28;20034;-68
2022/05/31 06:20:22;;;;;;;9.48;4.72;;;14.30;91.10;;;;;;4991138;28;20034;-69
2022/05/31 06:22:48;;;;;;;10.20;4.85;;;14.40;91.10;;;;;;4987976;28;20121;-68
2022/05/31 06:25:22;;;;;;;6.68;4.70;;;14.40;91.10;;;;;;4988290;28;20062;-68
2022/05/31 06:28:08;;;;;;;9.65;4.57;;;14.40;91.40;;;;;;4991130;28;20394;-69
2022/05/31 06:30:34;;;;;;;6.57;4.50;;;14.50;91.10;;;;;;4990826;28;20482;-68
2022/05/31 06:32:59;;;;;;;12.00;5.18;;;14.50;91.10;;;;;;4991436;28;20022;-69
2022/05/31 06:35:26;;;;;;;8.68;5.15;;;14.60;91.10;;;;;;4990094;28;20545;-69
2022/05/31 06:38:03;;;;;;;8.73;4.70;;;14.60;91.20;;;;;;4990882;28;20033;-69
2022/05/31 06:40:29;;;;;;;8.15;4.82;;;14.60;91.20;;;;;;4990109;28;20093;-68
2022/05/31 06:43:21;;;;;;;6.82;4.80;;;14.60;91.20;;;;;;4991434;28;20125;-69
2022/05/31 06:46:25;;;;;;;6.10;4.20;;;14.60;91.10;;;;;;4970838;28;20066;-69
2022/05/31 06:49:09;;;;;;;7.63;4.22;;;14.70;91.00;;;;;;4969502;28;20053;-69
2022/05/31 06:57:47;;;;;;;7.45;3.78;;;14.80;90.80;;;;;;4983184;28;20100;-68
2022/05/31 07:00:33;;;;;;;8.30;4.22;;;14.80;90.70;;;;;;4991180;28;20038;-69
2022/05/31 07:02:59;;;;;;;9.55;3.53;;;14.80;90.70;;;;;;4990422;28;20041;-69
2022/05/31 07:05:32;;;;;;;5.35;3.38;;;14.80;90.70;;;;;;4990239;28;20105;-69
2022/05/31 07:07:59;;;;;;;6.63;3.42;;;14.80;90.70;;;;;;4990864;28;20031;-69
2022/05/31 07:10:43;;;;;;;5.88;3.90;;;14.80;90.60;;;;;;4994123;28;20085;-69
2022/05/31 07:13:15;;;;;;;8.88;4.50;;;14.90;90.60;;;;;;4995448;28;20033;-68
2022/05/31 07:16:00;;;;;;;6.90;4.30;;;14.90;90.60;;;;;;4995538;28;20449;-69
2022/05/31 07:18:49;;;;;;;6.47;3.88;;;14.90;90.60;;;;;;4992634;28;20043;-69
2022/05/31 07:21:15;;;;;;;7.07;3.92;;;14.90;90.50;;;;;;4993687;28;20044;-69
2022/05/31 07:23:41;;;;;;;6.78;3.90;;;15.00;90.40;;;;;;4994756;28;20117;-69
2022/05/31 07:26:09;;;;;;;5.28;2.85;;;15.00;90.40;;;;;;4992579;28;20053;-69
2022/05/31 07:28:35;;;;;;;5.78;3.33;;;15.10;90.40;;;;;;4988333;28;20050;-69
2022/05/31 07:31:03;;;;;;;6.15;3.58;;;15.10;90.40;;;;;;4993669;28;20512;-69
2022/05/31 07:33:32;;;;;;;5.60;3.88;;;15.10;90.30;;;;;;4993798;28;20378;-69
2022/05/31 07:35:59;;;;;;;7.22;3.30;;;15.20;90.30;;;;;;4996161;28;20034;-69
2022/05/31 07:38:26;;;;;;;5.95;3.28;;;15.20;90.30;;;;;;4992357;28;20033;-69
2022/05/31 07:40:53;;;;;;;7.40;3.72;;;15.20;90.20;;;;;;4994607;28;20045;-69
2022/05/31 07:43:19;;;;;;;4.68;3.20;;;15.30;90.20;;;;;;4993635;28;20149;-69
2022/05/31 07:45:47;;;;;;;5.78;3.38;;;15.30;90.10;;;;;;4993732;28;20026;-69
2022/05/31 07:48:13;;;;;;;4.97;3.30;;;15.30;90.00;;;;;;4988402;28;20475;-69
2022/05/31 07:50:40;;;;;;;6.15;3.13;;;15.40;89.80;;;;;;5002464;28;20394;-68
2022/05/31 07:53:24;;;;;;;6.55;2.30;;;15.40;89.80;;;;;;4983597;28;20041;-69
2022/05/31 07:56:09;;;;;;;6.20;2.95;;;15.50;89.70;;;;;;4995058;28;20049;-68
2022/05/31 07:58:54;;;;;;;5.00;2.78;;;15.50;89.30;;;;;;4995052;28;20060;-69
2022/05/31 08:01:42;;;;;;;7.75;2.70;;;15.50;89.20;;;;;;4976575;28;20137;-69
2022/05/31 08:04:28;;;;;;;8.30;3.05;;;15.60;89.30;;;;;;4995284;28;20093;-69
2022/05/31 08:06:59;;;;;;;9.27;2.97;;;15.60;89.30;;;;;;4994132;28;20442;-69
2022/05/31 08:09:25;;;;;;;5.97;3.10;;;15.60;89.30;;;;;;4995159;28;20058;-68
2022/05/31 08:11:51;;;;;;;5.88;3.20;;;15.70;89.20;;;;;;4993239;28;20579;-69
2022/05/31 08:14:17;;;;;;;8.20;2.95;;;15.80;88.80;;;;;;4983188;28;20209;-68
2022/05/31 08:16:42;;;;;;;9.85;2.78;;;15.80;88.70;;;;;;4994366;28;20033;-69
2022/05/31 08:19:08;;;;;;;3.97;2.80;;;15.80;88.60;;;;;;4995242;28;20061;-69
2022/05/31 08:21:34;;;;;;;9.45;3.60;;;15.90;88.40;;;;;;4993292;28;20069;-69
2022/05/31 08:24:03;;;;;;;3.85;2.55;;;16.00;88.50;;;;;;4994775;28;20504;-68
2022/05/31 08:26:29;;;;;;;5.78;3.22;;;16.00;88.30;;;;;;4994010;28;20041;-69
2022/05/31 08:28:55;;;;;;;5.53;2.90;;;16.10;88.00;;;;;;4991428;28;20038;-69
2022/05/31 08:31:31;;;;;;;3.58;2.67;;;16.10;87.30;;;;;;4994887;28;20030;-69
2022/05/31 08:33:58;;;;;;;6.25;2.65;;;16.10;87.10;;;;;;4986330;28;20394;-69
2022/05/31 08:36:26;;;;;;;4.70;2.95;;;16.20;87.40;;;;;;4993269;28;20033;-69
2022/05/31 08:38:52;;;;;;;5.03;2.83;;;16.20;87.30;;;;;;4994453;28;20026;-69
2022/05/31 08:41:31;;;;;;;5.05;2.53;;;16.30;87.50;;;;;;4994045;28;20406;-69
2022/05/31 08:44:28;;;;;;;6.00;3.00;;;16.30;87.50;;;;;;4993795;28;20071;-69
2022/05/31 08:47:09;;;;;;;3.95;2.60;;;16.40;87.60;;;;;;4993560;28;20033;-69
2022/05/31 08:52:43;;;;;;;5.18;3.15;;;16.50;87.00;;;;;;4994876;28;20053;-68
2022/05/31 08:58:12;;;;;;;4.95;2.40;;;16.60;86.60;;;;;;4992395;28;20144;-68
2022/05/31 09:00:42;;;;;;;6.63;2.40;;;16.70;86.20;;;;;;4993106;28;20120;-69
2022/05/31 09:03:18;;;;;;;6.15;3.20;;;16.70;86.30;;;;;;4992285;28;21258;-67
2022/05/31 09:05:56;;;;;;;5.82;3.17;;;16.80;86.40;;;;;;4989933;28;20027;-68
2022/05/31 09:08:31;;;;;;;6.40;2.70;;;16.90;86.50;;;;;;4991720;28;20030;-68
2022/05/31 09:11:02;;;;;;;4.65;2.53;;;16.90;85.70;;;;;;4992050;28;20116;-68
2022/05/31 09:13:40;;;;;;;7.68;2.97;;;16.90;85.80;;;;;;4992816;28;20034;-68
2022/05/31 09:16:10;;;;;;;9.35;2.83;;;17.00;85.40;;;;;;4992223;28;20529;-68
2022/05/31 09:18:58;;;;;;;7.57;2.30;;;17.10;85.30;;;;;;4992559;28;20029;-68
2022/05/31 09:21:25;;;;;;;7.20;2.50;;;17.10;84.50;;;;;;4991683;28;20077;-68
2022/05/31 09:23:51;;;;;;;6.18;2.60;;;17.20;84.10;;;;;;4990467;28;20478;-68
2022/05/31 09:26:40;;;;;;;6.25;2.58;;;17.20;83.90;;;;;;4989043;28;20093;-68
2022/05/31 09:29:16;;;;;;;4.85;3.00;;;17.30;83.90;;;;;;4988470;28;20045;-66
2022/05/31 09:32:04;;;;;;;4.50;2.40;;;17.30;83.00;;;;;;4992065;28;20038;-70
2022/05/31 09:35:08;;;;;;;6.47;2.65;;;17.40;83.30;;;;;;4992141;28;20041;-69
2022/05/31 09:37:58;;;;;;;4.57;2.20;;;17.50;83.00;;;;;;4991733;28;20042;-70
2022/05/31 09:40:51;;;;;;;3.17;2.10;;;17.50;83.00;;;;;;4992420;28;20081;-67
2022/05/31 09:43:53;;;;;;;4.23;2.47;;;17.60;82.40;;;;;;4993448;28;20386;-67
2022/05/31 09:46:48;;;;;;;2.83;2.38;;;17.60;82.40;;;;;;4991287;28;20030;-70
2022/05/31 09:49:39;;;;;;;7.20;3.28;;;17.70;81.40;;;;;;4993069;28;20073;-69
2022/05/31 09:52:14;;;;;;;4.82;3.05;;;17.70;81.20;;;;;;4991871;28;20030;-69
2022/05/31 09:58:30;;;;;;;5.38;2.80;;;17.80;81.50;;;;;;4989056;28;20096;-69
2022/05/31 10:01:26;;;;;;;6.00;2.70;;;17.90;81.30;;;;;;4986735;28;20090;-69
2022/05/31 10:04:22;;;;;;;10.32;2.75;;;17.90;80.10;;;;;;4992373;28;20035;-69
2022/05/31 10:07:33;;;;;;;6.68;3.10;;;18.00;79.40;;;;;;4992239;28;20118;-69
2022/05/31 10:10:27;;;;;;;7.10;2.80;;;18.00;79.40;;;;;;4985635;28;20046;-67
2022/05/31 10:12:56;;;;;;;6.03;2.53;;;18.10;79.00;;;;;;4991400;28;20071;-65
2022/05/31 10:15:37;;;;;;;10.40;3.20;;;18.10;78.30;;;;;;4992713;28;20054;-66
2022/05/31 10:18:06;;;;;;;6.00;2.70;;;18.10;78.10;;;;;;4992434;28;20474;-65
2022/05/31 10:20:35;;;;;;;8.02;3.10;;;18.20;78.50;;;;;;4984285;28;20534;-65
2022/05/31 10:23:03;;;;;;;4.53;2.50;;;18.20;79.20;;;;;;4991813;28;20064;-65
2022/05/31 10:25:56;;;;;;;5.05;2.70;;;18.20;79.10;;;;;;4991740;28;20390;-65
2022/05/31 10:29:00;;;;;;;5.82;2.70;;;18.30;78.50;;;;;;4990361;28;20501;-66
2022/05/31 10:31:47;;;;;;;6.00;2.58;;;18.40;78.50;;;;;;4988615;28;20054;-66
2022/05/31 10:34:31;;;;;;;5.00;2.38;;;18.40;78.30;;;;;;4991103;28;20521;-65
2022/05/31 10:36:59;;;;;;;4.00;2.20;;;18.50;77.60;;;;;;4991876;28;20088;-66
2022/05/31 10:39:28;;;;;;;7.53;2.70;;;18.60;76.70;;;;;;4991147;28;20402;-66
2022/05/31 10:41:57;;;;;;;4.70;2.40;;;18.60;75.80;;;;;;4990817;28;20034;-65
2022/05/31 10:44:34;;;;;;;5.38;2.60;;;18.70;75.90;;;;;;4991283;28;20018;-66
2022/05/31 10:47:12;;;;;;;6.13;2.80;;;18.80;76.90;;;;;;4991273;28;20052;-66
2022/05/31 10:49:39;;;;;;;4.13;2.22;;;18.80;76.70;;;;;;4989320;28;20034;-66
2022/05/31 10:52:10;;;;;;;5.47;2.83;;;18.80;76.20;;;;;;4990842;28;20042;-66
2022/05/31 10:55:11;;;;;;;4.68;2.35;;;18.80;77.80;;;;;;4991740;28;20377;-65
2022/05/31 10:58:05;;;;;;;4.47;2.35;;;18.90;77.80;;;;;;4989719;28;20084;-66
2022/05/31 11:01:04;;;;;;;4.43;2.25;;;18.90;77.30;;;;;;4990888;28;20410;-66
2022/05/31 11:03:56;;;;;;;4.15;2.42;;;18.90;76.70;;;;;;4990054;28;20088;-65
2022/05/31 11:06:33;;;;;;;8.65;2.60;;;18.90;75.60;;;;;;4991644;28;20178;-65
2022/05/31 11:12:26;;;;;;;3.97;2.15;;;19.00;74.90;;;;;;4991155;28;20132;-67
2022/05/31 11:15:13;;;;;;;3.85;1.90;;;19.00;74.10;;;;;;4990714;28;20117;-69
2022/05/31 11:17:46;;;;;;;4.80;2.20;;;19.00;74.60;;;;;;4989026;28;20045;-69
2022/05/31 11:20:15;;;;;;;7.53;2.03;;;19.00;73.80;;;;;;4989561;28;20039;-69
2022/05/31 11:22:59;;;;;;;5.63;2.10;;;19.00;74.20;;;;;;4991064;28;20045;-69
2022/05/31 11:25:51;;;;;;;4.65;2.28;;;19.00;73.50;;;;;;4990166;28;20058;-69
2022/05/31 11:28:48;;;;;;;4.10;1.80;;;19.00;73.40;;;;;;4990791;28;20030;-68
2022/05/31 11:31:22;;;;;;;2.60;1.83;;;19.00;72.90;;;;;;4990469;28;20022;-68
2022/05/31 11:34:20;;;;;;;3.08;2.03;;;19.00;72.80;;;;;;4990716;28;20081;-69
2022/05/31 11:37:27;;;;;;;6.72;2.08;;;19.00;73.20;;;;;;4991071;28;20042;-70
2022/05/31 11:40:03;;;;;;;5.25;2.40;;;19.00;74.60;;;;;;4949555;29;20146;-70
2022/05/31 11:42:41;;;;;;;7.05;3.00;;;19.10;74.30;;;;;;4985655;28;20042;-69
2022/05/31 11:45:42;;;;;;;5.70;2.42;;;19.00;73.90;;;;;;4990079;28;20019;-70
2022/05/31 11:48:26;;;;;;;8.02;3.20;;;19.00;74.10;;;;;;4989600;28;20113;-70
2022/05/31 11:51:09;;;;;;;6.07;2.90;;;19.10;74.90;;;;;;4991940;28;20050;-69
2022/05/31 11:54:01;;;;;;;5.80;2.78;;;19.10;75.30;;;;;;4990604;28;20030;-69
2022/05/31 11:57:04;;;;;;;6.72;2.72;;;19.20;75.20;;;;;;4992449;28;20029;-69
2022/05/31 11:59:55;;;;;;;7.43;2.78;;;19.30;75.50;;;;;;4992631;28;20486;-70
2022/05/31 12:02:32;;;;;;;3.40;2.38;;;19.30;75.80;;;;;;4993987;28;20042;-69
2022/05/31 12:05:11;;;;;;;4.97;2.97;;;19.30;75.70;;;;;;4995630;28;20030;-70
2022/05/31 12:07:56;;;;;;;7.10;2.92;;;19.30;76.30;;;;;;4993921;28;20033;-68
2022/05/31 12:10:26;;;;;;;7.63;2.60;;;19.40;76.90;;;;;;4993916;28;20050;-68
2022/05/31 12:13:04;;;;;;;5.60;3.15;;;19.40;76.90;;;;;;4994535;28;20034;-68
2022/05/31 12:15:33;;;;;;;7.03;3.17;;;19.50;75.90;;;;;;4994388;28;20042;-68
2022/05/31 12:18:15;;;;;;;8.00;3.13;;;19.50;75.80;;;;;;4993982;28;20026;-67
2022/05/31 12:20:55;;;;;;;7.53;3.03;;;19.60;76.20;;;;;;4993085;28;20077;-67
2022/05/31 12:23:46;;;;;;;6.03;3.28;;;19.60;76.00;;;;;;4990077;28;20072;-68
2022/05/31 12:26:45;;;;;;;6.57;3.33;;;19.60;76.20;;;;;;4994606;28;20022;-68
2022/05/31 12:29:38;;;;;;;6.75;2.97;;;19.70;76.30;;;;;;4994766;28;20084;-68
2022/05/31 12:32:29;;;;;;;4.93;2.90;;;19.60;76.10;;;;;;4913907;29;20064;-68
2022/05/31 12:34:56;;;;;;;6.60;3.30;;;19.70;77.00;;;;;;4989828;28;20062;-68
2022/05/31 12:37:22;;;;;;;7.25;2.80;;;19.70;76.40;;;;;;4991834;28;20061;-68
2022/05/31 12:39:50;;;;;;;8.05;3.17;;;19.70;75.70;;;;;;4992414;28;20512;-68
2022/05/31 12:42:25;;;;;;;10.18;3.30;;;19.80;75.50;;;;;;4989605;28;20113;-68
2022/05/31 12:45:29;;;;;;;5.05;3.00;;;19.80;75.30;;;;;;4992217;28;20073;-68
2022/05/31 12:47:56;;;;;;;;;;;19.80;75.90;;;;;;4974697;28;20034;-66
2022/05/31 12:50:51;;;;;;;3.95;2.88;;;19.90;76.90;;;;;;4993579;28;19909;-68
2022/05/31 12:53:26;;;;;;;6.55;3.40;;;19.90;76.80;;;;;;4991392;28;20036;-68
2022/05/31 12:55:57;;;;;;;8.02;3.22;;;19.90;75.80;;;;;;4993002;28;20141;-69
2022/05/31 12:58:35;;;;;;;6.10;2.72;;;20.00;75.70;;;;;;4993415;28;20058;-69
2022/05/31 13:01:15;;;;;;;4.63;2.67;;;20.00;75.00;;;;;;4993412;28;20474;-69
2022/05/31 13:03:50;;;;;;;4.72;2.67;;;20.00;74.50;;;;;;4989694;28;20053;-69
2022/05/31 13:06:19;;;;;;;5.13;2.85;;;20.00;74.30;;;;;;4992291;28;20394;-69
2022/05/31 13:08:57;;;;;;;6.30;3.00;;;20.10;75.00;;;;;;4990824;28;20030;-68
2022/05/31 13:20:18;;;;;;;12.85;2.90;;;20.10;73.30;;;;;;4992585;28;20089;-68
2022/05/31 13:22:48;;;;;;;;;;;20.20;72.30;;;;;;4992571;28;20029;-69
2022/05/31 13:25:43;;;;;;;4.43;2.10;;;20.10;75.10;;;;;;4989207;28;20392;-68
2022/05/31 13:28:32;;;;;;;3.88;2.20;;;20.10;73.70;;;;;;4988658;28;20034;-68
2022/05/31 13:31:13;;;;;;;5.22;2.42;;;20.10;73.50;;;;;;4988961;28;20033;-68
2022/05/31 13:33:40;;;;;;;3.88;2.30;;;20.10;73.20;;;;;;4990663;28;20034;-68
2022/05/31 13:36:14;;;;;;;6.10;2.60;;;20.10;74.10;;;;;;4991300;28;20030;-68
2022/05/31 13:38:48;;;;;;;4.70;2.25;;;20.10;72.80;;;;;;4988779;28;20037;-68
2022/05/31 13:41:18;;;;;;;6.18;2.35;;;20.10;72.10;;;;;;4989386;28;20038;-68
2022/05/31 13:43:47;;;;;;;5.28;2.67;;;20.10;72.90;;;;;;4987528;28;20035;-68
2022/05/31 13:46:20;;;;;;;5.18;2.03;;;20.00;72.20;;;;;;4989135;28;20018;-68
2022/05/31 13:48:53;;;;;;;3.10;1.73;;;20.00;71.40;;;;;;4987112;28;20036;-68
2022/05/31 13:51:23;;;;;;;4.03;1.95;;;20.00;71.90;;;;;;4986889;28;20038;-69
2022/05/31 13:53:49;;;;;;;5.22;2.15;;;20.00;71.20;;;;;;4987015;28;20031;-68
2022/05/31 13:56:18;;;;;;;3.85;1.90;;;20.00;71.00;;;;;;4987383;28;20037;-68
2022/05/31 13:58:49;;;;;;;5.00;2.20;;;19.90;70.70;;;;;;4986049;28;20122;-68
2022/05/31 14:01:46;;;;;;;5.30;2.35;;;20.00;70.90;;;;;;4986863;28;20054;-68
2022/05/31 14:04:15;;;;;;;5.38;2.50;;;20.00;71.90;;;;;;4985020;28;20489;-68